Time;durP1;ratioP1;P1;durP2;ratioP2;P2;SDS_P1;SDS_P2;PMS_P1;PMS_P2;Temp;Humidity;BMP_temperature;BMP_pressure;BME280_temperature;BME280_humidity;BME280_pressure;Samples;Min_cycle;Max_cycle;Signal;HPM_P1;HPM_P2
2021/07/07 00:00:12;;;;;;;4.97;4.37;;;;;;;23.36;100.00;96206.69;5012180;28;20747;-83
2021/07/07 00:02:39;;;;;;;5.67;4.83;;;;;;;23.36;100.00;96198.66;5012706;28;20227;-82
2021/07/07 00:05:08;;;;;;;4.83;4.43;;;;;;;23.35;100.00;96203.22;5012385;28;20241;-83
2021/07/07 00:07:35;;;;;;;4.97;4.57;;;;;;;23.38;100.00;96207.25;5012319;28;20238;-83
2021/07/07 00:10:05;;;;;;;5.87;4.57;;;;;;;23.27;100.00;96200.91;5012112;28;20317;-83
2021/07/07 00:12:34;;;;;;;4.90;3.70;;;;;;;23.33;100.00;96196.44;5011873;28;20234;-82
2021/07/07 00:15:02;;;;;;;7.87;4.50;;;;;;;23.36;100.00;96193.28;5012218;28;20215;-83
2021/07/07 00:17:29;;;;;;;4.70;4.23;;;;;;;23.30;100.00;96189.69;5012147;28;20196;-83
2021/07/07 00:19:56;;;;;;;5.07;4.57;;;;;;;23.24;100.00;96204.88;5012047;28;20195;-83
2021/07/07 00:22:23;;;;;;;4.70;4.23;;;;;;;22.81;100.00;96208.03;5011937;28;20641;-83
2021/07/07 00:24:51;;;;;;;4.90;4.50;;;;;;;22.67;100.00;96201.31;5011886;28;20262;-83
2021/07/07 00:27:18;;;;;;;5.40;4.90;;;;;;;22.60;100.00;96196.09;5012055;28;20230;-83
2021/07/07 00:29:47;;;;;;;6.03;4.07;;;;;;;22.58;100.00;96195.50;5012085;28;20223;-83
2021/07/07 00:32:16;;;;;;;8.20;5.23;;;;;;;22.45;100.00;96195.78;5011852;28;20663;-82
2021/07/07 00:34:44;;;;;;;6.03;4.23;;;;;;;22.44;100.00;96202.16;5011892;28;20215;-82
2021/07/07 00:37:11;;;;;;;4.60;4.20;;;;;;;22.29;100.00;96197.28;4994989;28;20216;-83
2021/07/07 00:39:38;;;;;;;4.90;4.50;;;;;;;22.21;100.00;96195.78;4992145;28;20193;-82
2021/07/07 00:42:06;;;;;;;4.33;4.03;;;;;;;22.29;100.00;96190.06;4993208;28;20255;-82
2021/07/07 00:44:33;;;;;;;5.37;4.43;;;;;;;22.28;100.00;96184.97;4995936;28;20223;-83
2021/07/07 00:47:02;;;;;;;4.70;4.30;;;;;;;22.27;100.00;96200.22;4996345;28;20200;-82
2021/07/07 00:49:30;;;;;;;4.37;4.03;;;;;;;22.26;100.00;96185.19;4995920;28;20286;-82
2021/07/07 00:51:57;;;;;;;5.40;4.40;;;;;;;22.16;100.00;96179.59;4996030;28;20255;-82
2021/07/07 00:54:25;;;;;;;4.83;4.50;;;;;;;22.13;100.00;96165.84;4995966;28;20200;-82
2021/07/07 00:56:54;;;;;;;5.80;4.70;;;;;;;22.17;100.00;96150.97;4996016;28;20240;-83
2021/07/07 00:59:22;;;;;;;5.27;4.87;;;;;;;22.15;100.00;96140.50;4995831;28;20200;-82
2021/07/07 01:01:49;;;;;;;5.33;4.47;;;;;;;22.29;100.00;96131.16;4995953;28;20283;-82
2021/07/07 01:04:18;;;;;;;4.43;4.13;;;;;;;22.16;100.00;96168.09;4995628;28;20291;-82
2021/07/07 01:06:45;;;;;;;4.80;4.40;;;;;;;22.09;100.00;96174.34;4995838;28;20204;-82
2021/07/07 01:09:13;;;;;;;4.53;4.13;;;;;;;22.07;100.00;96170.28;4995464;28;20232;-82
2021/07/07 01:11:40;;;;;;;5.17;4.67;;;;;;;22.05;100.00;96161.66;4995693;28;20201;-82
2021/07/07 01:14:07;;;;;;;8.33;4.60;;;;;;;22.08;100.00;96155.84;4995564;28;20575;-82
2021/07/07 01:16:35;;;;;;;5.30;4.87;;;;;;;22.01;100.00;96155.97;4995689;28;20258;-82
2021/07/07 01:19:02;;;;;;;4.50;4.17;;;;;;;22.05;100.00;96149.09;4995557;28;20238;-82
2021/07/07 01:21:31;;;;;;;7.27;4.60;;;;;;;21.86;100.00;96136.91;4995773;28;20630;-82
2021/07/07 01:24:00;;;;;;;4.90;4.47;;;;;;;21.94;100.00;96117.00;4995429;28;20251;-82
2021/07/07 01:26:27;;;;;;;5.00;4.47;;;;;;;21.91;100.00;96128.16;4995493;28;20196;-82
2021/07/07 01:28:55;;;;;;;5.03;4.63;;;;;;;21.92;100.00;96127.91;4994958;28;20653;-82
2021/07/07 01:31:22;;;;;;;5.27;4.77;;;;;;;21.88;100.00;96125.94;4995460;28;20703;-83
2021/07/07 01:33:49;;;;;;;6.80;5.20;;;;;;;21.90;100.00;96115.84;4995174;28;20200;-83
2021/07/07 01:36:16;;;;;;;5.83;5.43;;;;;;;21.78;100.00;96113.16;4995342;28;20204;-83
2021/07/07 01:38:44;;;;;;;5.20;4.80;;;;;;;21.77;100.00;96103.50;4995572;28;20200;-82
2021/07/07 01:41:13;;;;;;;4.53;4.13;;;;;;;21.60;100.00;96092.69;4995133;28;20296;-82
2021/07/07 01:43:40;;;;;;;5.27;4.80;;;;;;;21.64;100.00;96082.34;4994928;28;20196;-82
2021/07/07 01:46:08;;;;;;;5.43;5.03;;;;;;;21.62;100.00;96076.44;4995190;28;20295;-83
2021/07/07 01:48:38;;;;;;;5.63;5.13;;;;;;;21.69;100.00;96077.13;4994518;28;20208;-82
2021/07/07 01:51:05;;;;;;;8.57;4.43;;;;;;;21.72;100.00;96065.97;4995028;28;20267;-82
2021/07/07 01:53:33;;;;;;;4.90;4.50;;;;;;;21.72;100.00;96045.38;4993957;28;20674;-82
2021/07/07 01:56:00;;;;;;;5.60;4.47;;;;;;;21.59;100.00;96046.41;4995023;28;20262;-82
2021/07/07 01:58:29;;;;;;;5.40;4.60;;;;;;;21.75;100.00;96038.72;4994585;28;20255;-82
2021/07/07 02:00:56;;;;;;;5.53;4.77;;;;;;;21.80;100.00;96052.22;4994860;28;20250;-82
2021/07/07 02:03:24;;;;;;;5.17;4.63;;;;;;;21.75;100.00;96050.25;4994910;28;20204;-83
2021/07/07 02:05:51;;;;;;;4.93;4.50;;;;;;;21.74;100.00;96039.78;4994959;28;20684;-83
2021/07/07 02:08:18;;;;;;;5.57;5.10;;;;;;;21.84;100.00;96042.66;4994603;28;20239;-82
2021/07/07 02:10:46;;;;;;;5.10;4.80;;;;;;;21.70;100.00;96042.09;4994715;28;20227;-82
2021/07/07 02:13:14;;;;;;;5.00;4.13;;;;;;;21.64;100.00;96032.34;4994292;28;20323;-82
2021/07/07 02:15:43;;;;;;;5.87;5.27;;;;;;;21.57;100.00;96037.81;4994711;28;20255;-82
2021/07/07 02:18:11;;;;;;;6.63;5.20;;;;;;;21.59;100.00;96021.53;4994704;28;20586;-82
2021/07/07 02:20:41;;;;;;;4.83;4.50;;;;;;;21.74;100.00;96040.59;4994844;28;20196;-82
2021/07/07 02:23:10;;;;;;;5.73;5.23;;;;;;;21.81;100.00;96030.56;4994832;28;20231;-82
2021/07/07 02:25:40;;;;;;;6.10;4.60;;;;;;;21.79;100.00;96037.22;4994414;28;20254;-82
2021/07/07 02:28:08;;;;;;;7.77;4.87;;;;;;;21.77;100.00;96026.75;4994368;28;20277;-82
2021/07/07 02:30:37;;;;;;;4.83;4.37;;;;;;;21.72;100.00;96029.31;4994500;28;20247;-82
2021/07/07 02:33:08;;;;;;;5.37;4.80;;;;;;;21.68;100.00;96030.00;4994134;28;20211;-82
2021/07/07 02:35:37;;;;;;;5.20;4.60;;;;;;;21.58;100.00;96018.06;4994088;28;20188;-82
2021/07/07 02:38:07;;;;;;;5.07;4.60;;;;;;;21.58;100.00;96022.59;4994033;28;20614;-82
2021/07/07 02:40:36;;;;;;;5.33;4.93;;;;;;;21.49;100.00;96006.06;4994067;28;20200;-82
2021/07/07 02:43:05;;;;;;;4.83;4.43;;;;;;;21.51;100.00;96028.06;4994017;28;20234;-82
2021/07/07 02:45:34;;;;;;;5.60;4.47;;;;;;;21.52;100.00;96036.88;4993781;28;20200;-82
2021/07/07 02:48:02;;;;;;;6.37;4.60;;;;;;;21.50;100.00;96042.44;4994176;28;20234;-82
2021/07/07 02:50:31;;;;;;;5.37;4.97;;;;;;;21.47;100.00;96034.91;4994102;28;20220;-82
2021/07/07 02:52:58;;;;;;;4.63;4.03;;;;;;;21.44;100.00;96022.03;4994043;28;20224;-81
2021/07/07 02:55:26;;;;;;;5.63;5.13;;;;;;;21.47;100.00;96021.53;4993697;28;20569;-82
2021/07/07 02:58:00;;;;;;;6.30;4.90;;;;;;;21.42;100.00;96026.78;4999797;28;20196;-83
2021/07/07 03:00:30;;;;;;;5.83;5.23;;;;;;;21.39;100.00;96027.22;5013304;28;20195;-83
2021/07/07 03:03:00;;;;;;;5.07;4.53;;;;;;;21.43;100.00;96033.72;5012907;28;20286;-83
2021/07/07 03:05:28;;;;;;;5.97;4.47;;;;;;;21.49;100.00;96034.69;5012779;28;20257;-83
2021/07/07 03:07:57;;;;;;;8.20;5.23;;;;;;;21.49;100.00;96045.38;5012748;28;20199;-83
2021/07/07 03:10:24;;;;;;;5.70;4.87;;;;;;;21.37;100.00;96045.34;5013402;28;20230;-81
2021/07/07 03:12:51;;;;;;;5.40;4.93;;;;;;;21.34;100.00;96043.16;5012916;28;20318;-81
2021/07/07 03:15:19;;;;;;;4.27;3.97;;;;;;;21.31;100.00;96043.59;5012762;28;20265;-82
2021/07/07 03:17:46;;;;;;;4.50;4.20;;;;;;;21.24;100.00;96033.00;5012693;28;20235;-81
2021/07/07 03:20:13;;;;;;;6.00;5.40;;;;;;;21.22;100.00;96020.91;5012879;28;20239;-85
2021/07/07 03:22:41;;;;;;;5.17;4.47;;;;;;;21.30;100.00;96024.06;5012851;28;20206;-85
2021/07/07 03:25:11;;;;;;;5.77;4.93;;;;;;;21.21;100.00;96005.94;5001563;28;20461;-82
2021/07/07 03:27:38;;;;;;;5.27;4.87;;;;;;;21.31;100.00;96003.50;4991011;28;20219;-82
2021/07/07 03:30:07;;;;;;;4.57;4.10;;;;;;;21.32;100.00;95999.78;5004318;28;20274;-82
2021/07/07 03:32:34;;;;;;;5.00;4.57;;;;;;;21.40;100.00;95995.97;5011749;28;20367;-81
2021/07/07 03:35:02;;;;;;;7.10;4.10;;;;;;;21.44;100.00;95989.94;5011763;28;20576;-81
2021/07/07 03:37:29;;;;;;;4.90;4.50;;;;;;;21.38;100.00;95988.19;5011201;28;20209;-81
2021/07/07 03:39:57;;;;;;;5.63;4.40;;;;;;;21.49;100.00;95989.22;5011325;28;20196;-80
2021/07/07 03:42:25;;;;;;;4.83;4.13;;;;;;;21.51;100.00;95995.97;5011547;28;20222;-80
2021/07/07 03:44:53;;;;;;;5.30;4.80;;;;;;;21.48;100.00;95988.41;5011498;28;20235;-80
2021/07/07 03:47:20;;;;;;;4.77;4.37;;;;;;;21.49;100.00;95987.34;5011600;28;20199;-81
2021/07/07 03:49:48;;;;;;;5.00;4.53;;;;;;;21.58;100.00;95991.31;5010612;28;20758;-81
2021/07/07 03:52:15;;;;;;;5.30;4.80;;;;;;;21.65;100.00;95995.69;5011666;28;20199;-80
2021/07/07 03:54:42;;;;;;;7.33;5.00;;;;;;;21.70;100.00;96003.84;5011704;28;20342;-81
2021/07/07 03:57:10;;;;;;;5.30;4.70;;;;;;;21.78;100.00;95998.94;5011502;28;20253;-80
2021/07/07 03:59:38;;;;;;;5.37;4.87;;;;;;;21.77;100.00;95988.47;5010892;28;20195;-80
2021/07/07 04:02:06;;;;;;;7.97;5.37;;;;;;;21.69;100.00;95984.31;5011245;28;20202;-79
2021/07/07 04:04:35;;;;;;;5.77;5.30;;;;;;;21.75;100.00;95972.69;5010830;28;20200;-81
2021/07/07 04:07:03;;;;;;;4.70;4.37;;;;;;;21.74;100.00;95972.91;5011176;28;20258;-81
2021/07/07 04:09:30;;;;;;;6.20;4.93;;;;;;;21.72;100.00;95964.31;5011143;28;20203;-81
2021/07/07 04:11:59;;;;;;;5.90;5.30;;;;;;;21.69;100.00;95964.78;5010387;28;20251;-81
2021/07/07 04:14:26;;;;;;;5.33;4.83;;;;;;;21.71;100.00;95957.31;5011741;28;20199;-81
2021/07/07 04:16:57;;;;;;;5.60;5.17;;;;;;;21.65;100.00;95947.56;5011678;28;20223;-80
2021/07/07 04:19:26;;;;;;;6.67;4.63;;;;;;;21.71;100.00;95946.63;5012041;28;20195;-80
2021/07/07 04:21:54;;;;;;;5.77;5.33;;;;;;;21.70;100.00;95934.31;5012076;28;20234;-80
2021/07/07 04:24:22;;;;;;;5.67;5.17;;;;;;;21.73;100.00;95928.50;5011918;28;20290;-81
2021/07/07 04:26:50;;;;;;;5.43;5.03;;;;;;;21.81;100.00;95914.72;5003041;28;20224;-81
2021/07/07 04:29:17;;;;;;;6.10;5.13;;;;;;;21.84;100.00;95927.63;4992876;28;20247;-81
2021/07/07 04:31:45;;;;;;;5.27;4.87;;;;;;;21.89;100.00;95922.41;4992195;28;20270;-81
2021/07/07 04:34:14;;;;;;;5.60;5.00;;;;;;;21.96;100.00;95923.06;4992307;28;20699;-81
2021/07/07 04:36:41;;;;;;;5.43;5.10;;;;;;;22.02;100.00;95927.44;5005731;28;20203;-81
2021/07/07 04:39:09;;;;;;;5.63;4.93;;;;;;;22.03;100.00;95917.53;5011851;28;20195;-81
2021/07/07 04:41:37;;;;;;;5.57;5.07;;;;;;;22.08;100.00;95914.97;5012077;28;20613;-81
2021/07/07 04:44:04;;;;;;;5.50;5.10;;;;;;;22.17;100.00;95924.28;5011787;28;20290;-81
2021/07/07 04:46:32;;;;;;;6.70;6.03;;;;;;;22.21;100.00;95920.06;5011981;28;20202;-81
2021/07/07 04:48:59;;;;;;;4.90;4.60;;;;;;;22.29;100.00;95917.00;5011849;28;20253;-81
2021/07/07 04:51:28;;;;;;;5.40;5.00;;;;;;;22.34;100.00;95929.66;5011703;28;20227;-80
2021/07/07 04:53:55;;;;;;;7.50;5.40;;;;;;;22.39;100.00;95942.34;5011726;28;20199;-81
2021/07/07 04:56:23;;;;;;;6.13;5.50;;;;;;;22.51;100.00;95970.69;5001072;28;20274;-81
2021/07/07 04:58:50;;;;;;;7.57;5.17;;;;;;;22.60;100.00;95997.88;4992215;28;20205;-81
2021/07/07 05:01:17;;;;;;;7.77;5.43;;;;;;;22.70;100.00;96018.69;4992315;28;20279;-81
2021/07/07 05:03:44;;;;;;;9.50;5.10;;;;;;;22.68;100.00;96018.91;4991903;28;20263;-80
2021/07/07 05:06:12;;;;;;;8.20;5.50;;;;;;;22.78;100.00;96026.31;4992315;28;20647;-81
2021/07/07 05:08:40;;;;;;;5.30;4.90;;;;;;;22.82;100.00;96064.97;4992336;28;20239;-81
2021/07/07 05:11:08;;;;;;;5.60;5.20;;;;;;;22.83;100.00;96071.97;4992084;28;20224;-80
2021/07/07 05:13:35;;;;;;;5.53;5.03;;;;;;;22.92;100.00;96062.50;5003623;28;20250;-81
2021/07/07 05:16:02;;;;;;;5.40;4.97;;;;;;;22.95;100.00;96070.06;5011720;28;20262;-81
2021/07/07 05:18:31;;;;;;;5.47;5.07;;;;;;;23.01;100.00;96077.13;5011768;28;20199;-81
2021/07/07 05:20:58;;;;;;;6.07;5.57;;;;;;;22.98;100.00;96084.84;5011681;28;20196;-81
2021/07/07 05:23:26;;;;;;;6.33;5.30;;;;;;;22.98;100.00;96074.94;5011247;28;20231;-81
2021/07/07 05:25:55;;;;;;;5.40;4.87;;;;;;;22.96;100.00;96076.22;5011585;28;20261;-81
2021/07/07 05:28:22;;;;;;;6.13;5.53;;;;;;;23.01;100.00;96085.19;5012698;28;20290;-81
2021/07/07 05:30:49;;;;;;;6.47;5.40;;;;;;;23.04;100.00;96083.06;5015471;28;20387;-81
2021/07/07 05:33:17;;;;;;;6.23;5.27;;;;;;;23.05;100.00;96111.50;5014667;28;20290;-81
2021/07/07 05:35:44;;;;;;;5.47;5.00;;;;;;;23.05;100.00;96098.91;5015031;28;20203;-81
2021/07/07 05:38:11;;;;;;;5.80;4.63;;;;;;;23.12;100.00;96085.34;5014832;28;20206;-81
2021/07/07 05:40:39;;;;;;;5.63;4.90;;;;;;;23.12;100.00;96088.84;5015194;28;20192;-81
2021/07/07 05:43:07;;;;;;;5.30;4.90;;;;;;;23.13;100.00;96070.88;5014434;28;20230;-81
2021/07/07 05:45:35;;;;;;;6.00;5.50;;;;;;;23.15;100.00;96074.16;5014823;28;20238;-81
2021/07/07 05:48:02;;;;;;;7.90;5.77;;;;;;;23.13;100.00;96073.56;5014627;28;20664;-81
2021/07/07 05:50:29;;;;;;;6.20;5.07;;;;;;;23.13;100.00;96069.00;5014701;28;20239;-81
2021/07/07 05:52:57;;;;;;;5.90;5.37;;;;;;;23.15;100.00;96063.44;5014300;28;20210;-81
2021/07/07 05:55:25;;;;;;;5.77;5.23;;;;;;;23.12;100.00;96070.06;5014898;28;20263;-81
2021/07/07 05:57:52;;;;;;;6.00;5.53;;;;;;;23.19;100.00;96069.91;5014415;28;20195;-81
2021/07/07 06:00:23;;;;;;;6.73;6.10;;;;;;;23.15;100.00;96074.16;5014856;28;20633;-81
2021/07/07 06:02:52;;;;;;;6.20;5.23;;;;;;;23.15;100.00;96063.44;5014491;28;20266;-81
2021/07/07 06:05:20;;;;;;;5.03;4.73;;;;;;;23.15;100.00;96058.06;5013732;28;20199;-81
2021/07/07 06:07:48;;;;;;;7.90;5.30;;;;;;;23.24;100.00;96041.34;4993683;28;20209;-81
2021/07/07 06:10:16;;;;;;;7.57;5.27;;;;;;;23.29;100.00;96032.56;4993374;28;20200;-80
2021/07/07 06:12:44;;;;;;;6.00;5.40;;;;;;;23.23;100.00;96033.53;4994324;28;20775;-81
2021/07/07 06:15:14;;;;;;;6.67;5.70;;;;;;;23.34;100.00;96023.75;4994683;28;20207;-81
2021/07/07 06:17:43;;;;;;;7.17;5.50;;;;;;;23.36;100.00;96017.09;4994724;28;20196;-81
2021/07/07 06:20:14;;;;;;;6.67;5.53;;;;;;;23.47;100.00;96032.28;4994557;28;20669;-81
2021/07/07 06:22:44;;;;;;;6.53;5.93;;;;;;;23.61;100.00;96031.94;4994361;28;20650;-81
2021/07/07 06:25:13;;;;;;;7.53;5.53;;;;;;;23.46;100.00;96062.84;4994338;28;20689;-81
2021/07/07 06:27:40;;;;;;;5.63;5.10;;;;;;;23.65;100.00;96073.31;4994245;28;20204;-81
2021/07/07 06:30:10;;;;;;;12.23;5.77;;;;;;;23.58;100.00;96094.13;4994545;28;20200;-81
2021/07/07 06:32:38;;;;;;;7.20;6.47;;;;;;;23.60;100.00;96094.72;4994005;28;20204;-81
2021/07/07 06:35:08;;;;;;;6.70;5.93;;;;;;;23.70;100.00;96108.31;4994260;28;20204;-81
2021/07/07 06:37:36;;;;;;;6.30;5.80;;;;;;;23.66;100.00;96116.00;4994222;28;20243;-81
2021/07/07 06:40:04;;;;;;;7.67;6.60;;;;;;;23.70;100.00;96140.50;4993468;28;20199;-81
2021/07/07 06:42:32;;;;;;;11.37;6.93;;;;;;;23.69;100.00;96138.88;4993903;28;20685;-81
2021/07/07 06:45:00;;;;;;;7.67;6.97;;;;;;;23.82;100.00;96125.13;4994235;28;20200;-81
2021/07/07 06:47:28;;;;;;;8.53;6.20;;;;;;;24.09;100.00;96144.03;4994179;28;20226;-80
2021/07/07 06:49:55;;;;;;;7.37;6.67;;;;;;;24.88;100.00;96175.97;4993485;28;20669;-81
2021/07/07 06:52:24;;;;;;;7.53;5.60;;;;;;;25.58;100.00;96251.53;4993850;28;20678;-82
2021/07/07 06:54:51;;;;;;;7.90;6.33;;;;;;;26.08;100.00;96290.78;4994038;28;20267;-81
2021/07/07 06:57:19;;;;;;;6.80;6.20;;;;;;;26.20;100.00;96309.47;4994121;28;20685;-81
2021/07/07 06:59:46;;;;;;;7.07;6.30;;;;;;;26.31;100.00;96330.84;4993656;28;20232;-82
2021/07/07 07:02:13;;;;;;;7.53;6.63;;;;;;;26.60;100.00;96333.25;4993713;28;20283;-81
2021/07/07 07:04:41;;;;;;;6.68;6.07;;;;;;;26.25;100.00;96321.09;4993512;28;20259;-81
2021/07/07 07:07:10;;;;;;;7.65;7.05;;;;;;;26.07;100.00;96322.28;4993779;28;20219;-82
2021/07/07 07:09:38;;;;;;;7.53;6.60;;;;;;;25.84;100.00;96318.06;4993289;28;20258;-81
2021/07/07 07:12:06;;;;;;;7.57;5.90;;;;;;;25.65;100.00;96311.34;4993527;28;20286;-82
2021/07/07 07:14:33;;;;;;;6.18;5.57;;;;;;;25.36;100.00;96303.50;4993462;28;20192;-82
2021/07/07 07:17:01;;;;;;;6.57;6.07;;;;;;;25.13;100.00;96298.38;4993276;28;20200;-82
2021/07/07 07:19:28;;;;;;;6.82;6.32;;;;;;;25.12;100.00;96294.88;4993654;28;20204;-82
2021/07/07 07:21:55;;;;;;;6.93;5.77;;;;;;;25.47;100.00;96322.47;4994098;28;20228;-82
2021/07/07 07:24:23;;;;;;;6.43;5.33;;;;;;;25.70;100.00;96329.41;4993447;28;20241;-82
2021/07/07 07:26:51;;;;;;;6.10;5.70;;;;;;;26.16;100.00;96348.78;4993096;28;20200;-82
2021/07/07 07:29:19;;;;;;;5.83;5.43;;;;;;;25.95;100.00;96343.19;4993215;28;20765;-82
2021/07/07 07:31:46;;;;;;;8.43;5.53;;;;;;;26.06;100.00;96336.81;4993472;28;20228;-82
2021/07/07 07:34:14;;;;;;;5.97;5.47;;;;;;;26.27;100.00;96353.19;4993080;28;20196;-82
2021/07/07 07:36:41;;;;;;;8.40;5.20;;;;;;;26.14;100.00;96356.28;4993550;28;20197;-82
2021/07/07 07:39:15;;;;;;;7.93;6.35;;;;;;;26.56;100.00;96364.50;4993246;28;20208;-82
2021/07/07 07:41:42;;;;;;;5.22;4.82;;;;;;;27.22;100.00;96377.63;4993170;28;20181;-82
2021/07/07 07:44:11;;;;;;;5.78;5.00;;;;;;;27.48;100.00;96392.88;4993377;28;20586;-82
2021/07/07 07:46:39;;;;;;;5.65;5.15;;;;;;;27.50;100.00;96401.53;4993239;28;20306;-82
2021/07/07 07:49:10;;;;;;;6.57;5.22;;;;;;;27.11;100.00;96398.31;4992753;28;20203;-82
2021/07/07 07:51:37;;;;;;;6.07;5.60;;;;;;;27.56;100.00;96399.66;4992121;28;20212;-82
2021/07/07 07:54:05;;;;;;;6.25;5.43;;;;;;;27.48;100.00;96403.69;4992897;28;20244;-82
2021/07/07 07:56:32;;;;;;;5.78;5.22;;;;;;;27.52;100.00;96409.38;4993098;28;20291;-82
2021/07/07 07:58:59;;;;;;;5.97;5.47;;;;;;;27.74;100.00;96409.19;4992494;28;20590;-82
2021/07/07 08:01:28;;;;;;;5.32;4.93;;;;;;;27.94;100.00;96417.38;4993155;28;20228;-82
2021/07/07 08:03:55;;;;;;;6.20;5.72;;;;;;;27.90;100.00;96420.88;4992714;28;20231;-82
2021/07/07 08:06:23;;;;;;;10.05;5.32;;;;;;;28.28;100.00;96422.34;4993015;28;20196;-82
2021/07/07 08:08:50;;;;;;;6.22;5.50;;;;;;;28.06;100.00;96425.28;4992440;28;20204;-82
2021/07/07 08:11:17;;;;;;;6.20;4.68;;;;;;;28.24;100.00;96436.66;4992751;28;20230;-82
2021/07/07 08:13:44;;;;;;;5.82;4.47;;;;;;;28.47;100.00;96446.97;4992465;28;20701;-82
2021/07/07 08:16:12;;;;;;;8.27;4.72;;;;;;;28.61;100.00;96447.28;4992699;28;20193;-83
2021/07/07 08:18:41;;;;;;;5.22;4.82;;;;;;;28.47;100.00;96446.97;4992240;28;20641;-83
2021/07/07 08:21:08;;;;;;;5.68;4.60;;;;;;;28.33;100.00;96452.06;4992652;28;20211;-82
2021/07/07 08:23:35;;;;;;;5.05;4.65;;;;;;;28.54;100.00;96452.97;4992781;28;20211;-82
2021/07/07 08:26:03;;;;;;;5.25;4.93;;;;;;;28.64;100.00;96444.84;4992401;28;20704;-83
2021/07/07 08:28:30;;;;;;;4.57;4.18;;;;;;;28.83;100.00;96455.16;4992494;28;20685;-83
2021/07/07 08:30:57;;;;;;;5.20;4.70;;;;;;;28.47;100.00;96451.59;4992506;28;20220;-83
2021/07/07 08:33:25;;;;;;;5.50;5.00;;;;;;;28.51;100.00;96453.50;4992453;28;20251;-82
2021/07/07 08:35:54;;;;;;;4.20;3.80;;;;;;;28.51;100.00;96466.19;4992785;28;20632;-82
2021/07/07 08:38:21;;;;;;;5.47;4.97;;;;;;;28.32;100.00;96460.47;4992645;28;20200;-82
2021/07/07 08:40:48;;;;;;;5.20;4.80;;;;;;;28.15;100.00;96460.69;4992637;28;20235;-82
2021/07/07 08:43:16;;;;;;;5.45;4.68;;;;;;;28.36;100.00;96462.34;4992174;28;20196;-83
2021/07/07 08:45:43;;;;;;;5.05;4.28;;;;;;;28.12;100.00;96467.41;4992354;28;20677;-82
2021/07/07 08:48:11;;;;;;;4.82;4.32;;;;;;;27.88;100.00;96471.66;4992367;28;20669;-82
2021/07/07 08:50:39;;;;;;;5.63;4.80;;;;;;;27.99;100.00;96465.25;4992386;28;20266;-82
2021/07/07 08:53:13;;;;;;;5.45;4.95;;;;;;;28.32;100.00;96468.56;4991931;28;20227;-83
2021/07/07 08:55:42;;;;;;;4.00;3.70;;;;;;;28.59;100.00;96476.50;4992240;28;20184;-83
2021/07/07 08:58:10;;;;;;;4.78;4.38;;;;;;;28.50;100.00;96478.91;4992205;28;20288;-83
2021/07/07 09:00:40;;;;;;;4.45;4.15;;;;;;;28.75;100.00;96488.13;4992676;28;20200;-82
2021/07/07 09:03:09;;;;;;;7.18;4.70;;;;;;;28.66;100.00;96487.84;4992715;28;20185;-82
2021/07/07 09:05:52;;;;;;;5.38;4.60;;;;;;;28.90;100.00;96496.28;4996098;28;20224;-83
2021/07/07 09:08:26;;;;;;;4.97;4.18;;;;;;;29.00;100.00;96493.59;4996287;28;20255;-83
2021/07/07 09:10:54;;;;;;;4.55;4.07;;;;;;;29.02;100.00;96499.53;4996059;28;20228;-82
2021/07/07 09:13:23;;;;;;;4.68;4.28;;;;;;;29.07;100.00;96504.97;4995395;28;20240;-83
2021/07/07 09:15:51;;;;;;;4.60;4.25;;;;;;;28.94;100.00;96501.94;4995989;28;20265;-83
2021/07/07 09:18:23;;;;;;;4.63;4.22;;;;;;;28.72;100.00;96497.63;4995681;28;20200;-82
2021/07/07 09:20:51;;;;;;;4.13;3.83;;;;;;;28.82;100.00;96513.00;4995599;28;20220;-83
2021/07/07 09:23:22;;;;;;;8.45;4.95;;;;;;;28.87;100.00;96504.91;4995547;28;20200;-83
2021/07/07 09:25:54;;;;;;;4.50;4.20;;;;;;;29.00;100.00;96503.63;4995905;28;20666;-83
2021/07/07 09:28:24;;;;;;;5.28;4.45;;;;;;;29.12;100.00;96512.25;4995289;28;20223;-83
2021/07/07 09:30:52;;;;;;;5.22;4.72;;;;;;;29.49;100.00;96511.97;4995869;28;20204;-83
2021/07/07 09:33:21;;;;;;;4.22;3.92;;;;;;;29.73;100.00;96514.13;4995210;28;20314;-83
2021/07/07 09:35:49;;;;;;;4.38;4.05;;;;;;;29.73;100.00;96512.22;4995420;28;20673;-83
2021/07/07 09:38:18;;;;;;;4.97;4.50;;;;;;;29.74;100.00;96519.25;4995446;28;20247;-83
2021/07/07 09:40:46;;;;;;;4.82;4.43;;;;;;;29.32;100.00;96524.97;4995419;28;20666;-83
2021/07/07 09:43:15;;;;;;;8.07;4.43;;;;;;;29.20;100.00;96521.72;4995219;28;20197;-83
2021/07/07 09:45:44;;;;;;;4.18;3.88;;;;;;;29.45;100.00;96515.50;4995261;28;20287;-83
2021/07/07 09:48:14;;;;;;;4.47;4.18;;;;;;;29.39;100.00;96518.19;4994785;28;20681;-83
2021/07/07 09:50:43;;;;;;;4.15;3.88;;;;;;;29.49;100.00;96522.78;4995203;28;20617;-83
2021/07/07 09:53:12;;;;;;;5.18;4.65;;;;;;;29.78;100.00;96533.06;4994967;28;20260;-83
2021/07/07 09:55:41;;;;;;;4.90;4.50;;;;;;;29.93;100.00;96524.06;4995006;28;20253;-83
2021/07/07 09:58:09;;;;;;;4.40;4.10;;;;;;;29.94;100.00;96528.41;4994669;28;20208;-83
2021/07/07 10:00:41;;;;;;;4.97;4.55;;;;;;;30.11;100.00;96528.09;4995057;28;20200;-83
2021/07/07 10:03:08;;;;;;;4.47;4.07;;;;;;;30.09;100.00;96526.44;4994789;28;20189;-83
2021/07/07 10:05:40;;;;;;;4.35;4.10;;;;;;;30.18;100.00;96528.63;4994674;28;20259;-83
2021/07/07 10:08:09;;;;;;;5.10;4.60;;;;;;;29.63;100.00;96522.25;4994766;28;20272;-83
2021/07/07 10:10:38;;;;;;;4.60;3.83;;;;;;;29.55;100.00;96532.53;4994888;28;20196;-83
2021/07/07 10:13:06;;;;;;;4.55;4.20;;;;;;;29.50;100.00;96521.69;4994355;28;20271;-83
2021/07/07 10:15:34;;;;;;;5.05;4.10;;;;;;;29.48;100.00;96523.03;4993727;28;20226;-83
2021/07/07 10:18:04;;;;;;;4.82;4.53;;;;;;;29.53;100.00;96523.88;4994368;28;20203;-83
2021/07/07 10:20:32;;;;;;;5.13;4.63;;;;;;;30.09;100.00;96512.91;4994797;28;20228;-83
2021/07/07 10:23:01;;;;;;;4.47;4.18;;;;;;;30.21;100.00;96518.03;4994527;28;20196;-84
2021/07/07 10:25:31;;;;;;;4.47;4.15;;;;;;;29.77;100.00;96515.19;4994592;28;20700;-83
2021/07/07 10:28:02;;;;;;;4.18;3.88;;;;;;;30.11;100.00;96509.13;4994234;28;20192;-84
2021/07/07 10:30:48;;;;;;;4.43;4.13;;;;;;;30.09;100.00;96518.31;4994493;28;20248;-83
2021/07/07 10:33:18;;;;;;;4.32;3.75;;;;;;;30.30;100.00;96510.94;4994484;28;20224;-84
2021/07/07 10:35:46;;;;;;;5.13;4.15;;;;;;;30.59;100.00;96509.41;4994416;28;20300;-84
2021/07/07 10:38:14;;;;;;;6.25;3.92;;;;;;;30.60;100.00;96513.78;4994221;28;20211;-84
2021/07/07 10:40:48;;;;;;;5.53;4.18;;;;;;;30.30;100.00;96523.69;4994590;28;20278;-83
2021/07/07 10:43:43;;;;;;;4.63;4.22;;;;;;;30.42;100.00;96526.88;4994435;28;20540;-84
2021/07/07 10:46:11;;;;;;;4.55;4.20;;;;;;;30.37;100.00;96526.09;4994383;28;20291;-84
2021/07/07 10:48:40;;;;;;;8.73;4.15;;;;;;;30.28;100.00;96523.16;4994237;28;20200;-84
2021/07/07 10:51:25;;;;;;;9.38;4.35;;;;;;;30.57;100.00;96515.13;4994374;28;20306;-83
2021/07/07 10:53:53;;;;;;;7.57;4.75;;;;;;;30.32;100.00;96518.81;4994193;28;20205;-84
2021/07/07 10:56:45;;;;;;;5.07;4.68;;;;;;;30.74;100.00;96514.75;4993886;28;20251;-84
2021/07/07 10:59:33;;;;;;;4.85;4.55;;;;;;;31.01;100.00;96522.47;4994118;28;20707;-84
2021/07/07 11:02:06;;;;;;;5.60;4.95;;;;;;;30.87;100.00;96518.78;4994275;28;20283;-84
2021/07/07 11:04:39;;;;;;;6.00;5.13;;;;;;;31.07;100.00;96520.53;4993671;28;20196;-84
2021/07/07 11:07:26;;;;;;;12.20;5.20;;;;;;;30.89;100.00;96525.53;4993606;28;20255;-84
2021/07/07 11:09:54;;;;;;;5.35;4.95;;;;;;;31.17;100.00;96518.53;4993523;28;20267;-84
2021/07/07 11:12:25;;;;;;;4.80;4.40;;;;;;;30.88;100.00;96521.22;4993382;28;20236;-83
2021/07/07 11:15:09;;;;;;;4.75;4.40;;;;;;;30.79;100.00;96503.91;4993281;28;20192;-84
2021/07/07 11:17:37;;;;;;;5.35;4.40;;;;;;;30.54;100.00;96512.97;4993915;28;20216;-84
2021/07/07 11:20:09;;;;;;;5.00;4.50;;;;;;;30.92;100.00;96508.69;4993401;28;20203;-83
2021/07/07 11:22:37;;;;;;;5.28;4.85;;;;;;;30.87;100.00;96513.38;4993425;28;20275;-84
2021/07/07 11:25:07;;;;;;;5.32;4.47;;;;;;;31.02;100.00;96508.63;4993329;28;20255;-84
2021/07/07 11:27:36;;;;;;;5.50;4.97;;;;;;;31.20;100.00;96512.53;4993511;28;20211;-84
2021/07/07 11:30:06;;;;;;;7.05;5.18;;;;;;;31.02;100.00;96516.75;4993172;28;20235;-83